Time;durP1;ratioP1;P1;durP2;ratioP2;P2;SDS_P1;SDS_P2;PMS_P1;PMS_P2;Temp;Humidity;BMP_temperature;BMP_pressure;BME280_temperature;BME280_humidity;BME280_pressure;Samples;Min_cycle;Max_cycle;Signal;HPM_P1;HPM_P2
2021/11/24 00:00:34;;;;;;;17.90;10.30;;;;;;;3.65;83.95;99604.06;214816;1320;22810;-76
2021/11/24 00:05:36;;;;;;;15.60;10.80;;;;;;;3.60;84.14;99599.91;214863;1319;24200;-76
2021/11/24 00:10:51;;;;;;;18.30;12.60;;;;;;;3.59;84.38;99597.27;214616;1322;22602;-75
2021/11/24 00:16:02;;;;;;;15.70;10.90;;;;;;;3.57;84.65;99603.82;214492;1323;22623;-76
2021/11/24 00:21:07;;;;;;;21.50;13.50;;;;;;;3.57;84.80;99602.28;215040;1319;22679;-76
2021/11/24 00:26:09;;;;;;;22.50;13.00;;;;;;;3.59;84.90;99601.31;214717;1318;24459;-76
2021/11/24 00:31:11;;;;;;;23.90;15.40;;;;;;;3.57;85.10;99605.94;214983;1322;22671;-76
2021/11/24 00:36:13;;;;;;;25.60;15.10;;;;;;;3.61;85.04;99608.98;215007;1322;22829;-76
2021/11/24 00:41:15;;;;;;;30.60;17.40;;;;;;;3.61;85.02;99603.01;215139;1322;23747;-77
2021/11/24 00:46:17;;;;;;;31.90;17.30;;;;;;;3.57;84.99;99605.26;214793;1321;24133;-76
2021/11/24 00:51:19;;;;;;;29.50;17.00;;;;;;;3.55;85.06;99609.80;214968;1321;24323;-76
2021/11/24 00:56:21;;;;;;;32.80;19.20;;;;;;;3.54;85.07;99608.83;214682;1322;22654;-75
2021/11/24 01:01:23;;;;;;;34.90;20.10;;;;;;;3.50;85.04;99605.82;214943;1321;23312;-76
2021/11/24 01:06:26;;;;;;;37.90;21.00;;;;;;;3.49;85.18;99603.71;215145;1320;22535;-76
2021/11/24 01:11:29;;;;;;;37.90;21.90;;;;;;;3.50;85.10;99599.30;215319;1321;22772;-75
2021/11/24 01:16:31;;;;;;;36.00;21.20;;;;;;;3.49;85.07;99600.48;215274;1320;25362;-76
2021/11/24 01:21:33;;;;;;;36.00;20.40;;;;;;;3.48;85.04;99594.59;215007;1322;25433;-76
2021/11/24 01:26:35;;;;;;;36.70;19.50;;;;;;;3.49;85.03;99587.33;214963;1321;22667;-76
2021/11/24 01:31:38;;;;;;;34.20;19.10;;;;;;;3.45;84.83;99590.06;214716;1322;22608;-76
2021/11/24 01:36:40;;;;;;;33.60;20.00;;;;;;;3.37;84.81;99591.05;214830;1321;22821;-75
2021/11/24 01:41:42;;;;;;;34.00;19.70;;;;;;;3.29;84.80;99589.06;214970;1321;22767;-75
2021/11/24 01:46:54;;;;;;;28.30;17.90;;;;;;;3.23;84.94;99587.20;214784;1320;24264;-76
2021/11/24 01:51:56;;;;;;;29.10;17.50;;;;;;;3.19;84.97;99579.79;214624;1320;24440;-76
2021/11/24 01:56:59;;;;;;;34.20;19.10;;;;;;;3.13;84.98;99573.98;214822;1322;22623;-76
2021/11/24 02:02:02;;;;;;;28.30;17.10;;;;;;;3.07;85.04;99574.41;214970;1321;23798;-75
2021/11/24 02:07:04;;;;;;;28.10;16.70;;;;;;;2.99;84.93;99572.88;214441;1323;22806;-75
2021/11/24 02:12:07;;;;;;;29.20;18.60;;;;;;;2.89;84.82;99570.84;215182;1321;24199;-76
2021/11/24 02:17:14;;;;;;;36.40;20.40;;;;;;;2.79;84.76;99567.36;214792;1320;22797;-76
2021/11/24 02:22:17;;;;;;;34.80;20.40;;;;;;;2.68;84.75;99568.06;214709;1320;22646;-76
2021/11/24 02:27:19;;;;;;;40.70;25.00;;;;;;;2.50;84.76;99566.45;214411;1319;22674;-76
2021/11/24 02:32:20;;;;;;;47.40;26.20;;;;;;;2.37;85.12;99569.60;214630;1322;24183;-75
2021/11/24 02:37:22;;;;;;;41.50;25.90;;;;;;;2.37;85.48;99571.77;214301;1322;24328;-75
2021/11/24 02:42:24;;;;;;;38.30;23.70;;;;;;;2.42;85.61;99571.84;214952;1320;22622;-74
2021/11/24 02:47:27;;;;;;;44.90;25.90;;;;;;;2.45;85.67;99566.45;214937;1322;22603;-76
2021/11/24 02:52:37;;;;;;;45.80;25.30;;;;;;;2.47;85.80;99566.02;215109;1321;25380;-76
2021/11/24 02:57:42;;;;;;;40.30;24.50;;;;;;;2.52;85.96;99561.15;214906;1321;22772;-76
2021/11/24 03:02:48;;;;;;;35.50;22.70;;;;;;;2.60;85.70;99561.04;214847;1321;22711;-75
2021/11/24 03:07:59;;;;;;;38.80;23.40;;;;;;;2.63;85.78;99567.17;214891;1322;22506;-75
2021/11/24 03:13:02;;;;;;;37.50;22.90;;;;;;;2.64;85.74;99562.27;215063;1321;22633;-76
2021/11/24 03:18:04;;;;;;;35.00;22.20;;;;;;;2.65;85.60;99555.88;214996;1319;24222;-75
2021/11/24 03:23:14;;;;;;;36.00;20.30;;;;;;;2.68;85.77;99555.29;214842;1322;24190;-75
2021/11/24 03:28:16;;;;;;;35.00;22.20;;;;;;;2.69;85.84;99550.79;214841;1319;24257;-75
2021/11/24 03:33:18;;;;;;;36.50;23.20;;;;;;;2.66;85.52;99550.86;214720;1322;22682;-76
2021/11/24 03:38:20;;;;;;;27.30;17.90;;;;;;;2.65;85.38;99546.88;214423;1320;22632;-75
2021/11/24 03:43:23;;;;;;;31.00;19.50;;;;;;;2.63;85.42;99540.10;214930;1322;22730;-76
2021/11/24 03:48:25;;;;;;;28.00;19.70;;;;;;;2.60;85.67;99533.69;214800;1321;23326;-76
2021/11/24 03:53:27;;;;;;;31.80;19.60;;;;;;;2.59;85.42;99530.32;214528;1324;25656;-76
2021/11/24 03:58:29;;;;;;;34.10;22.10;;;;;;;2.53;85.62;99529.70;214962;1320;23014;-76
2021/11/24 04:03:32;;;;;;;32.80;21.10;;;;;;;2.48;85.55;99525.38;214405;1322;24366;-76
2021/11/24 04:08:34;;;;;;;27.60;18.30;;;;;;;2.46;85.74;99524.28;214445;1323;22690;-77
2021/11/24 04:13:36;;;;;;;27.00;16.00;;;;;;;2.49;85.93;99523.98;214848;1323;22672;-76
2021/11/24 04:18:38;;;;;;;29.50;20.00;;;;;;;2.49;85.77;99519.02;215076;1317;25359;-76
2021/11/24 04:23:40;;;;;;;29.20;19.10;;;;;;;2.51;86.00;99516.60;215065;1321;24270;-76
2021/11/24 04:28:42;;;;;;;23.40;15.90;;;;;;;2.52;85.91;99516.77;214628;1316;22728;-76
2021/11/24 04:33:44;;;;;;;25.90;17.00;;;;;;;2.52;85.89;99518.21;214920;1321;22865;-76
2021/11/24 04:38:46;;;;;;;23.80;15.80;;;;;;;2.48;85.60;99511.58;214966;1316;22621;-76
2021/11/24 04:43:51;;;;;;;25.50;16.20;;;;;;;2.42;85.80;99520.39;214962;1322;23315;-76
2021/11/24 04:48:57;;;;;;;26.90;16.10;;;;;;;2.36;85.85;99522.05;214942;1321;22608;-75
2021/11/24 04:53:59;;;;;;;22.30;15.00;;;;;;;2.36;85.81;99521.80;214790;1321;22579;-75
2021/11/24 04:59:02;;;;;;;23.10;14.90;;;;;;;2.39;85.80;99514.79;214976;1322;22585;-76
2021/11/24 05:04:11;;;;;;;23.50;16.10;;;;;;;2.40;85.86;99514.73;214920;1321;22739;-76
2021/11/24 05:09:13;;;;;;;27.60;17.60;;;;;;;2.41;85.90;99507.90;214840;1321;196048;-76
2021/11/24 05:14:21;;;;;;;22.90;14.80;;;;;;;2.44;85.77;99502.90;215230;1321;22759;-76
2021/11/24 05:19:26;;;;;;;22.30;15.10;;;;;;;2.48;86.01;99505.39;215052;1320;23752;-76
2021/11/24 05:24:28;;;;;;;26.20;16.60;;;;;;;2.52;85.66;99508.70;214658;1319;24340;-76
2021/11/24 05:29:31;;;;;;;20.50;14.50;;;;;;;2.55;85.69;99504.55;215011;1316;22670;-75
2021/11/24 05:34:33;;;;;;;24.70;16.30;;;;;;;2.57;85.66;99498.77;215038;1322;25275;-76
2021/11/24 05:39:36;;;;;;;21.30;14.70;;;;;;;2.60;85.72;99500.36;215132;1317;22740;-77
2021/11/24 05:44:48;;;;;;;24.10;14.90;;;;;;;2.64;85.47;99502.73;214757;1321;22672;-76
2021/11/24 05:50:05;;;;;;;24.40;15.30;;;;;;;2.64;85.54;99498.54;214891;1322;22584;-76
2021/11/24 05:55:08;;;;;;;27.40;16.80;;;;;;;2.63;85.50;99497.17;214854;1320;24373;-76
2021/11/24 06:00:18;;;;;;;27.20;16.00;;;;;;;2.61;85.52;99497.51;215068;1322;24414;-76
2021/11/24 06:05:20;;;;;;;28.00;17.30;;;;;;;2.61;85.44;99499.98;215120;1322;22578;-76
2021/11/24 06:10:23;;;;;;;30.20;19.50;;;;;;;2.63;85.57;99499.20;214797;1321;23852;-77
2021/11/24 06:15:25;;;;;;;35.80;20.10;;;;;;;2.66;85.42;99501.33;214920;1322;24303;-76
2021/11/24 06:20:27;;;;;;;39.00;21.30;;;;;;;2.68;85.44;99498.55;214823;1320;25507;-76
2021/11/24 06:25:30;;;;;;;34.60;19.40;;;;;;;2.70;85.12;99502.38;215073;1317;22650;-75
2021/11/24 06:30:35;;;;;;;37.80;21.20;;;;;;;2.69;85.08;99500.45;214824;1319;22601;-75
2021/11/24 06:35:37;;;;;;;32.80;20.10;;;;;;;2.67;85.11;99499.61;214431;1324;25386;-74
2021/11/24 06:40:39;;;;;;;35.20;21.10;;;;;;;2.65;85.08;99503.42;214329;1323;23678;-75
2021/11/24 06:45:45;;;;;;;37.40;23.70;;;;;;;2.66;85.22;99508.81;215685;1316;22682;-75
2021/11/24 06:50:47;;;;;;;46.50;27.30;;;;;;;2.69;85.26;99511.60;215515;1320;24247;-75
2021/11/24 06:55:49;;;;;;;38.90;24.80;;;;;;;2.72;85.17;99513.64;215657;1316;22606;-75
2021/11/24 07:00:51;;;;;;;38.40;24.10;;;;;;;2.76;85.08;99514.02;215597;1315;22589;-75
2021/11/24 07:05:53;;;;;;;46.10;25.50;;;;;;;2.82;85.19;99517.45;215949;1315;22612;-75
2021/11/24 07:10:59;;;;;;;42.70;24.20;;;;;;;2.90;85.04;99524.25;216108;1315;22582;-75
2021/11/24 07:16:01;;;;;;;41.50;25.50;;;;;;;2.97;85.04;99527.15;215828;1316;24257;-75
2021/11/24 07:21:03;;;;;;;43.50;25.10;;;;;;;3.03;84.91;99535.04;215759;1315;22818;-75
2021/11/24 07:26:05;;;;;;;40.60;23.40;;;;;;;3.06;84.65;99529.09;215333;1316;23436;-75
2021/11/24 07:31:15;;;;;;;44.90;24.60;;;;;;;3.10;84.82;99524.45;215255;1315;23100;-75
2021/11/24 07:36:17;;;;;;;;;;;;;;;3.13;84.63;99524.05;215611;1317;25243;-75
2021/11/24 07:41:20;;;;;;;43.10;24.30;;;;;;;3.18;84.76;99518.95;215550;1315;22685;-75
2021/11/24 07:46:21;;;;;;;40.70;23.50;;;;;;;3.27;84.57;99516.82;215845;1315;25424;-75
2021/11/24 07:51:25;;;;;;;42.00;25.70;;;;;;;3.37;84.76;99516.11;215596;1316;22608;-75
2021/11/24 07:56:27;;;;;;;38.50;22.90;;;;;;;3.55;84.61;99518.50;215731;1315;22510;-76
2021/11/24 08:01:29;;;;;;;42.60;23.60;;;;;;;3.67;84.29;99518.05;214996;1318;22626;-75
2021/11/24 08:06:31;;;;;;;34.60;21.40;;;;;;;3.71;83.89;99508.10;215471;1315;25374;-76
2021/11/24 08:11:33;;;;;;;33.80;20.50;;;;;;;3.82;84.21;99507.90;215553;1315;22792;-76
2021/11/24 08:16:36;;;;;;;32.90;19.50;;;;;;;4.04;84.27;99503.63;215590;1315;22710;-75
2021/11/24 08:21:38;;;;;;;30.60;19.20;;;;;;;4.22;83.71;99508.64;215340;1315;24243;-75
2021/11/24 08:26:41;;;;;;;33.30;19.40;;;;;;;4.32;83.26;99505.17;215475;1315;25507;-76
2021/11/24 08:31:43;;;;;;;33.30;19.40;;;;;;;4.38;83.15;99509.72;215250;1316;24019;-75
2021/11/24 08:36:47;;;;;;;27.50;17.60;;;;;;;4.49;83.04;99508.68;215236;1315;22638;-74
2021/11/24 08:42:04;;;;;;;30.40;16.90;;;;;;;4.66;82.94;99511.20;215302;1316;22747;-76
2021/11/24 08:47:08;;;;;;;29.00;18.00;;;;;;;4.78;82.23;99513.69;215533;1315;22943;-76
2021/11/24 08:52:10;;;;;;;31.50;18.80;;;;;;;4.91;82.31;99512.27;215462;1316;23706;-75
2021/11/24 08:57:13;;;;;;;33.30;19.00;;;;;;;5.01;81.75;99512.55;215413;1316;25917;-76
2021/11/24 09:02:15;;;;;;;32.50;19.80;;;;;;;5.10;81.75;99514.85;215772;1315;22742;-76
2021/11/24 09:07:19;;;;;;;38.80;19.60;;;;;;;5.22;81.47;99513.45;215573;1315;23036;-76
2021/11/24 09:12:30;;;;;;;44.00;20.80;;;;;;;5.25;80.98;99510.96;215989;1315;22602;-76
2021/11/24 09:17:46;;;;;;;37.00;21.10;;;;;;;5.28;80.85;99511.02;215979;1315;22530;-76
2021/11/24 09:22:49;;;;;;;28.80;17.90;;;;;;;5.29;80.28;99508.08;215593;1315;22521;-75
2021/11/24 09:32:59;;;;;;;37.40;18.30;;;;;;;5.14;79.56;99498.90;215667;1315;23551;-76
2021/11/24 09:38:01;;;;;;;32.20;18.00;;;;;;;5.03;79.57;99495.20;215491;1316;22538;-76
2021/11/24 09:43:06;;;;;;;44.60;19.60;;;;;;;4.95;79.39;99491.23;215445;1316;22766;-75
2021/11/24 09:48:08;;;;;;;36.80;19.80;;;;;;;4.89;79.32;99496.83;215355;1319;22715;-76
2021/11/24 09:53:11;;;;;;;34.70;19.50;;;;;;;4.89;79.66;99495.88;215112;1315;22622;-77
2021/11/24 09:58:15;;;;;;;27.70;17.10;;;;;;;4.95;79.34;99491.75;215734;1316;24205;-76
2021/11/24 10:03:19;;;;;;;30.50;16.30;;;;;;;4.98;79.25;99487.88;215126;1318;22612;-76
2021/11/24 10:08:21;;;;;;;32.90;16.10;;;;;;;5.00;78.94;99482.02;215546;1315;22672;-76
2021/11/24 10:13:23;;;;;;;27.00;16.40;;;;;;;5.03;78.94;99478.34;215377;1316;23715;-75
2021/11/24 10:18:35;;;;;;;27.10;15.80;;;;;;;5.06;78.58;99475.51;215143;1316;22741;-75
2021/11/24 10:23:46;;;;;;;25.70;14.30;;;;;;;5.04;77.94;99472.28;215360;1316;24249;-74
2021/11/24 10:28:49;;;;;;;33.40;18.90;;;;;;;5.08;78.13;99469.61;215661;1316;23056;-76
2021/11/24 10:33:51;;;;;;;28.10;16.40;;;;;;;5.25;78.58;99469.61;215443;1315;22578;-75
2021/11/24 10:38:55;;;;;;;24.90;14.60;;;;;;;5.42;78.20;99465.63;215312;1315;22592;-75
2021/11/24 10:43:57;;;;;;;27.60;13.40;;;;;;;5.43;77.30;99458.98;215349;1315;23435;-75
2021/11/24 10:49:10;;;;;;;25.20;13.40;;;;;;;5.40;76.78;99457.20;215505;1315;22618;-75
2021/11/24 10:54:17;;;;;;;21.90;13.60;;;;;;;5.28;75.86;99447.80;215502;1316;22728;-77
2021/11/24 10:59:19;;;;;;;20.60;14.50;;;;;;;5.29;76.50;99438.73;215363;1320;24004;-77
2021/11/24 11:04:21;;;;;;;21.50;13.60;;;;;;;5.37;75.85;99438.13;215191;1316;22516;-77
2021/11/24 11:09:32;;;;;;;22.40;13.30;;;;;;;5.39;75.85;99429.96;215475;1315;22562;-76
2021/11/24 11:14:34;;;;;;;33.60;13.10;;;;;;;5.41;75.86;99427.45;215016;1322;22689;-75
2021/11/24 11:19:46;;;;;;;19.80;13.10;;;;;;;5.47;76.03;99420.08;215409;1322;25397;-77
2021/11/24 11:24:48;;;;;;;25.60;15.90;;;;;;;5.53;75.61;99415.14;215772;1316;22589;-76
2021/11/24 11:29:50;;;;;;;18.70;12.50;;;;;;;5.56;75.21;99407.00;215405;1316;24266;-74
2021/11/24 11:34:52;;;;;;;21.40;13.00;;;;;;;5.60;75.14;99399.40;215350;1315;25379;-76
2021/11/24 11:40:08;;;;;;;22.30;11.30;;;;;;;5.70;75.39;99395.80;215331;1316;23849;-75
2021/11/24 11:45:41;;;;;;;33.30;12.00;;;;;;;5.84;74.93;99392.79;215079;1316;24332;-76
2021/11/24 11:51:12;;;;;;;20.80;13.00;;;;;;;5.90;74.15;99380.49;215337;1316;24324;-76
2021/11/24 11:56:23;;;;;;;16.50;9.30;;;;;;;5.90;73.70;99371.80;215295;1316;22640;-75
2021/11/24 12:01:40;;;;;;;16.20;10.20;;;;;;;5.89;73.20;99373.71;214843;1316;23317;-76
2021/11/24 12:06:58;;;;;;;20.70;13.00;;;;;;;5.88;72.95;99370.72;215160;1316;25362;-76
2021/11/24 12:12:24;;;;;;;17.70;9.30;;;;;;;5.81;72.42;99364.76;214946;1316;22589;-76
2021/11/24 12:17:48;;;;;;;17.40;9.00;;;;;;;5.79;72.71;99360.02;214984;1316;22532;-76
2021/11/24 12:23:01;;;;;;;14.30;8.20;;;;;;;5.75;71.80;99352.83;215656;1315;25918;-75
2021/11/24 12:28:13;;;;;;;21.60;8.70;;;;;;;5.71;72.23;99351.58;215276;1317;22649;-75
2021/11/24 12:33:30;;;;;;;14.80;8.70;;;;;;;5.69;72.24;99352.83;215562;1316;22516;-76
2021/11/24 12:38:38;;;;;;;20.90;10.80;;;;;;;5.69;72.08;99348.73;215142;1317;22662;-76
2021/11/24 12:43:44;;;;;;;15.10;9.20;;;;;;;5.66;72.41;99348.58;215219;1320;22559;-76
2021/11/24 12:48:58;;;;;;;14.40;9.30;;;;;;;5.64;71.81;99349.08;215981;1320;23874;-75
2021/11/24 12:54:10;;;;;;;15.40;9.90;;;;;;;5.60;71.46;99345.73;215487;1315;24967;-75
2021/11/24 12:59:20;;;;;;;18.30;10.10;;;;;;;5.56;71.96;99342.84;215423;1319;22614;-76
2021/11/24 13:04:30;;;;;;;15.90;9.30;;;;;;;5.53;71.73;99346.98;215239;1320;23094;-76
2021/11/24 13:09:41;;;;;;;14.70;9.20;;;;;;;5.51;71.73;99344.71;212735;1322;3624432;-76
2021/11/24 13:15:07;;;;;;;14.70;9.80;;;;;;;5.50;71.57;99340.14;215343;1317;22679;-76
2021/11/24 13:20:32;;;;;;;16.40;9.50;;;;;;;5.44;71.66;99339.41;215523;1316;22591;-75
2021/11/24 13:25:43;;;;;;;17.80;9.80;;;;;;;5.45;72.13;99340.16;215524;1316;22561;-76
2021/11/24 13:30:59;;;;;;;18.80;10.70;;;;;;;5.49;71.90;99334.12;215280;1322;22539;-76
2021/11/24 13:36:18;;;;;;;19.10;11.10;;;;;;;5.48;71.53;99332.67;215741;1316;22648;-76
2021/11/24 13:41:32;;;;;;;14.50;8.60;;;;;;;5.47;71.95;99330.14;215451;1317;22504;-74
2021/11/24 13:46:40;;;;;;;;;;;;;;;5.47;71.89;99323.73;215564;1316;23842;-76
2021/11/24 13:51:44;;;;;;;15.10;8.50;;;;;;;5.47;71.57;99321.80;215677;1316;22669;-77
2021/11/24 13:57:04;;;;;;;10.50;6.60;;;;;;;5.47;71.58;99320.37;215669;1316;22518;-76
2021/11/24 14:02:09;;;;;;;7.30;3.60;;;;;;;5.39;70.04;99315.46;215408;1320;22593;-77
2021/11/24 14:07:16;;;;;;;4.40;3.90;;;;;;;5.31;69.95;99311.87;215623;1316;25356;-77
2021/11/24 14:12:30;;;;;;;9.60;5.80;;;;;;;5.29;70.07;99312.27;215628;1316;22543;-77
2021/11/24 14:18:00;;;;;;;7.90;5.90;;;;;;;5.31;70.06;99314.20;215333;1316;22676;-77
2021/11/24 14:23:18;;;;;;;10.40;7.10;;;;;;;5.36;70.41;99309.73;215380;1316;22812;-78
2021/11/24 14:28:32;;;;;;;10.90;7.10;;;;;;;5.38;70.33;99302.33;215500;1315;25430;-76
2021/11/24 14:33:34;;;;;;;12.00;7.60;;;;;;;5.40;71.00;99301.91;215414;1317;22804;-77
2021/11/24 14:38:36;;;;;;;19.50;10.40;;;;;;;5.38;71.02;99306.36;215748;1315;25362;-78
2021/11/24 14:43:38;;;;;;;11.60;8.40;;;;;;;5.37;71.00;99300.39;215511;1316;22704;-78
2021/11/24 14:48:41;;;;;;;12.60;8.40;;;;;;;5.34;71.18;99300.29;215974;1316;22724;-80
2021/11/24 14:53:43;;;;;;;15.00;9.20;;;;;;;5.29;71.19;99300.04;215794;1315;25478;-78
2021/11/24 14:58:46;;;;;;;18.40;9.70;;;;;;;5.26;71.01;99293.94;216336;1316;22756;-79
2021/11/24 15:03:48;;;;;;;15.30;9.50;;;;;;;5.25;71.01;99286.34;215626;1313;22547;-78
2021/11/24 15:08:50;;;;;;;14.30;9.60;;;;;;;5.22;71.13;99284.09;215789;1313;22654;-77
2021/11/24 15:13:52;;;;;;;13.60;9.10;;;;;;;5.18;71.04;99284.61;215343;1313;24370;-78
2021/11/24 15:18:54;;;;;;;14.60;9.20;;;;;;;5.10;71.08;99275.88;215532;1313;23471;-78
2021/11/24 15:23:56;;;;;;;15.30;10.20;;;;;;;5.04;71.10;99270.52;215026;1316;22710;-78
2021/11/24 15:29:00;;;;;;;16.10;10.40;;;;;;;5.00;70.98;99265.56;215354;1315;22624;-78
2021/11/24 15:34:02;;;;;;;17.30;10.40;;;;;;;4.98;71.04;99263.20;215677;1313;24258;-77
2021/11/24 15:39:05;;;;;;;15.80;9.80;;;;;;;4.98;71.48;99261.81;215384;1316;24295;-78
2021/11/24 15:44:10;;;;;;;24.10;12.70;;;;;;;4.95;71.42;99262.88;215747;1313;24190;-77
2021/11/24 15:49:12;;;;;;;28.30;15.70;;;;;;;4.94;72.00;99263.71;215630;1316;22617;-78
2021/11/24 15:54:17;;;;;;;18.70;11.30;;;;;;;4.94;71.87;99259.85;215192;1317;22622;-78
2021/11/24 15:59:19;;;;;;;15.80;9.80;;;;;;;4.89;71.36;99261.89;215093;1322;22512;-78
2021/11/24 16:04:21;;;;;;;18.00;10.60;;;;;;;4.78;71.49;99256.36;215103;1321;22605;-77
2021/11/24 16:09:36;;;;;;;17.80;10.10;;;;;;;4.70;71.60;99253.95;215099;1321;24299;-77
2021/11/24 16:14:47;;;;;;;14.80;9.40;;;;;;;4.64;71.56;99252.83;215293;1322;25359;-77
2021/11/24 16:19:49;;;;;;;17.00;9.60;;;;;;;4.55;71.39;99255.10;215474;1321;22535;-78
2021/11/24 16:24:52;;;;;;;17.40;9.50;;;;;;;4.52;71.25;99256.00;215186;1321;22576;-78
2021/11/24 16:30:04;;;;;;;16.80;10.20;;;;;;;4.51;71.21;99246.05;215084;1316;25378;-78
2021/11/24 16:35:07;;;;;;;16.30;9.90;;;;;;;4.51;71.01;99243.20;215232;1322;25998;-78
2021/11/24 16:40:10;;;;;;;17.00;10.40;;;;;;;4.51;71.07;99239.11;214915;1324;22668;-78
2021/11/24 16:45:12;;;;;;;22.90;10.50;;;;;;;4.50;70.95;99236.11;215406;1317;24205;-78
2021/11/24 16:50:14;;;;;;;19.20;11.30;;;;;;;4.44;70.91;99230.59;215073;1323;24312;-78
2021/11/24 16:55:17;;;;;;;24.90;10.90;;;;;;;4.41;70.62;99229.11;215124;1320;22545;-78
2021/11/24 17:00:19;;;;;;;11.60;7.80;;;;;;;4.35;70.37;99229.56;215167;1321;22812;-78
2021/11/24 17:05:22;;;;;;;19.30;10.90;;;;;;;4.33;70.10;99225.48;215330;1320;23152;-77
2021/11/24 17:10:25;;;;;;;24.00;13.00;;;;;;;4.35;70.48;99219.13;215065;1321;22653;-77
2021/11/24 17:15:29;;;;;;;20.60;12.40;;;;;;;4.39;70.90;99215.96;215126;1321;22583;-78
2021/11/24 17:20:32;;;;;;;42.00;25.00;;;;;;;4.44;70.83;99212.88;215282;1322;22653;-78
2021/11/24 17:25:45;;;;;;;21.40;13.60;;;;;;;4.48;70.76;99211.58;215078;1322;22637;-78
2021/11/24 17:30:47;;;;;;;22.90;14.10;;;;;;;4.51;70.28;99208.70;215091;1322;22592;-78
2021/11/24 17:35:56;;;;;;;25.60;16.00;;;;;;;4.49;70.46;99204.43;215250;1321;22572;-78
2021/11/24 17:40:58;;;;;;;26.20;15.30;;;;;;;4.54;70.83;99194.48;215558;1322;25431;-78
2021/11/24 17:46:02;;;;;;;21.70;13.40;;;;;;;4.53;70.32;99193.40;215057;1316;23851;-77
2021/11/24 17:51:06;;;;;;;21.20;13.50;;;;;;;4.52;70.41;99196.04;215459;1322;24254;-78
2021/11/24 17:56:08;;;;;;;23.50;14.90;;;;;;;4.45;70.07;99194.70;215011;1322;22521;-77
2021/11/24 18:01:12;;;;;;;21.20;14.10;;;;;;;4.42;70.32;99200.05;215039;1322;25227;-77
2021/11/24 18:06:15;;;;;;;23.30;15.10;;;;;;;4.39;70.31;99195.80;215038;1321;24211;-76
2021/11/24 18:11:20;;;;;;;25.90;16.10;;;;;;;4.34;70.14;99190.45;214965;1322;24343;-78
2021/11/24 18:16:22;;;;;;;22.70;15.30;;;;;;;4.27;70.40;99182.55;214826;1322;22967;-77
2021/11/24 18:21:24;;;;;;;35.00;19.50;;;;;;;4.27;70.62;99170.86;215258;1321;22509;-77
2021/11/24 18:26:27;;;;;;;37.90;19.70;;;;;;;4.28;70.45;99163.81;215125;1321;22726;-77
2021/11/24 18:31:33;;;;;;;30.90;17.50;;;;;;;4.23;70.19;99159.23;215078;1322;24191;-78
2021/11/24 18:36:36;;;;;;;26.70;14.90;;;;;;;4.14;70.24;99156.35;214754;1322;23881;-78
2021/11/24 18:41:44;;;;;;;17.60;10.80;;;;;;;4.05;69.95;99155.49;215179;1321;22517;-77
2021/11/24 18:46:46;;;;;;;17.60;10.30;;;;;;;3.95;70.08;99153.92;215221;1322;24177;-78
2021/11/24 18:51:50;;;;;;;13.50;8.50;;;;;;;3.84;69.98;99149.46;215357;1322;22608;-77
2021/11/24 18:56:54;;;;;;;17.40;11.60;;;;;;;3.71;69.98;99143.08;214913;1322;22560;-77
2021/11/24 19:02:00;;;;;;;12.90;9.30;;;;;;;3.57;70.40;99139.39;215453;1321;25360;-78
2021/11/24 19:07:04;;;;;;;12.80;9.40;;;;;;;3.46;70.75;99127.98;216120;1321;22740;-79
2021/11/24 19:12:07;;;;;;;15.00;9.70;;;;;;;3.32;70.78;99123.75;215905;1322;25398;-79
2021/11/24 19:17:10;;;;;;;19.70;11.20;;;;;;;3.13;70.77;99115.09;215870;1320;24214;-79
2021/11/24 19:22:12;;;;;;;21.90;13.80;;;;;;;2.92;70.84;99109.38;215496;1322;22658;-78
2021/11/24 19:27:14;;;;;;;26.20;15.10;;;;;;;2.75;71.13;99108.78;215108;1319;22503;-79
2021/11/24 19:32:20;;;;;;;36.80;18.30;;;;;;;2.61;71.45;99104.67;215855;1322;22615;-78
2021/11/24 19:37:25;;;;;;;38.80;19.00;;;;;;;2.49;71.79;99099.04;215372;1322;22753;-78
2021/11/24 19:42:27;;;;;;;36.20;19.10;;;;;;;2.38;72.00;99103.44;215796;1316;22635;-79
2021/11/24 19:47:29;;;;;;;36.40;18.90;;;;;;;2.26;72.14;99095.20;215620;1321;22650;-78
2021/11/24 19:52:32;;;;;;;41.10;19.70;;;;;;;2.12;72.16;99091.58;215707;1322;22625;-78
2021/11/24 19:57:34;;;;;;;33.70;17.70;;;;;;;2.01;72.43;99084.95;215709;1320;25941;-78
2021/11/24 20:02:36;;;;;;;39.80;20.40;;;;;;;1.95;72.71;99087.52;215746;1322;22573;-79
2021/11/24 20:07:39;;;;;;;41.10;21.20;;;;;;;1.90;73.18;99080.69;215730;1322;22677;-79
2021/11/24 20:12:46;;;;;;;42.80;20.80;;;;;;;1.83;73.34;99077.77;215938;1321;23339;-79
2021/11/24 20:17:49;;;;;;;49.40;23.40;;;;;;;1.74;73.31;99074.30;215399;1322;24212;-79
2021/11/24 20:22:53;;;;;;;50.00;24.20;;;;;;;1.63;73.33;99076.44;215651;1321;22502;-78
2021/11/24 20:27:57;;;;;;;48.40;24.60;;;;;;;1.54;73.44;99066.27;215521;1319;22648;-78
2021/11/24 20:33:02;;;;;;;55.00;26.90;;;;;;;1.50;73.78;99066.52;215580;1322;22601;-79
2021/11/24 20:38:05;;;;;;;59.50;28.50;;;;;;;1.46;73.97;99066.52;215989;1322;25393;-79
2021/11/24 20:43:07;;;;;;;61.10;27.90;;;;;;;1.41;74.06;99064.06;215932;1321;23880;-79
2021/11/24 20:48:09;;;;;;;57.70;28.30;;;;;;;1.35;74.13;99059.30;215838;1320;24228;-78
2021/11/24 20:53:12;;;;;;;51.50;26.20;;;;;;;1.29;74.09;99064.20;215947;1320;24372;-78
2021/11/24 20:58:14;;;;;;;52.50;26.30;;;;;;;1.28;74.52;99061.41;215687;1321;22601;-78
2021/11/24 21:03:16;;;;;;;65.10;30.80;;;;;;;1.26;74.75;99053.92;215883;1320;22680;-78
2021/11/24 21:08:18;;;;;;;60.00;28.80;;;;;;;1.22;75.02;99050.48;215724;1318;266795;-78
2021/11/24 21:13:32;;;;;;;62.50;29.10;;;;;;;1.15;75.05;99047.86;215460;1322;22546;-78
2021/11/24 21:18:34;;;;;;;60.60;28.80;;;;;;;1.08;74.78;99041.52;215452;1322;22513;-78
2021/11/24 21:23:38;;;;;;;58.60;29.60;;;;;;;0.95;74.81;99038.78;215632;1322;22524;-78
2021/11/24 21:28:54;;;;;;;63.50;31.60;;;;;;;0.85;75.07;99033.52;216124;1322;23800;-78
2021/11/24 21:34:16;;;;;;;60.10;30.70;;;;;;;0.72;75.56;99031.09;216020;1320;22549;-78
2021/11/24 21:39:18;;;;;;;57.30;28.60;;;;;;;0.62;75.85;99032.73;216027;1321;25252;-79
2021/11/24 21:44:20;;;;;;;54.30;27.50;;;;;;;0.56;75.62;99029.54;215790;1321;22541;-78
2021/11/24 21:49:22;;;;;;;54.20;26.80;;;;;;;0.56;76.03;99024.52;216171;1322;24061;-78
2021/11/24 21:54:24;;;;;;;48.50;24.50;;;;;;;0.57;76.11;99015.33;215321;1319;22807;-79
2021/11/24 21:59:26;;;;;;;52.60;25.20;;;;;;;0.60;76.40;99011.89;215696;1320;25323;-78
2021/11/24 22:04:28;;;;;;;50.20;24.00;;;;;;;0.63;76.62;99011.34;215828;1315;25227;-78
2021/11/24 22:15:05;;;;;;;92.20;41.70;;;;;;;0.53;76.81;99002.43;215038;1322;22624;-77
2021/11/24 22:20:13;;;;;;;98.20;43.20;;;;;;;0.51;76.46;98995.99;215137;1322;22499;-78
2021/11/24 22:25:15;;;;;;;89.40;43.80;;;;;;;0.44;76.68;98995.34;215351;1315;22593;-77
2021/11/24 22:30:17;;;;;;;88.90;41.70;;;;;;;0.41;76.94;98990.23;215417;1317;22737;-78
2021/11/24 22:35:19;;;;;;;80.50;36.50;;;;;;;0.34;76.68;98980.82;215440;1321;22734;-78
2021/11/24 22:40:30;;;;;;;73.10;35.30;;;;;;;0.21;76.73;98975.63;215338;1322;22532;-77
2021/11/24 22:45:33;;;;;;;82.20;38.70;;;;;;;0.09;76.43;98966.19;215365;1321;23769;-78
2021/11/24 22:50:36;;;;;;;74.90;35.50;;;;;;;-0.01;76.78;98963.88;215080;1323;22627;-78
2021/11/24 22:55:38;;;;;;;74.70;36.30;;;;;;;-0.12;77.24;98954.52;215456;1322;22635;-78
2021/11/24 23:00:42;;;;;;;82.10;38.60;;;;;;;-0.23;77.23;98947.39;215973;1322;25207;-79
2021/11/24 23:05:45;;;;;;;81.70;39.00;;;;;;;-0.29;77.23;98944.19;215799;1321;23845;-78
2021/11/24 23:10:47;;;;;;;78.60;38.30;;;;;;;-0.29;77.57;98937.59;215708;1319;25886;-78
2021/11/24 23:16:04;;;;;;;88.40;39.90;;;;;;;-0.35;77.66;98931.46;215599;1322;22719;-78
2021/11/24 23:21:15;;;;;;;102.80;45.90;;;;;;;-0.41;77.90;98923.89;215119;1322;22579;-78
2021/11/24 23:26:20;;;;;;;101.10;46.60;;;;;;;-0.49;78.13;98915.15;215667;1319;24196;-78
2021/11/24 23:31:29;;;;;;;118.30;54.30;;;;;;;-0.55;77.98;98904.94;215738;1321;22540;-78
2021/11/24 23:36:51;;;;;;;97.90;45.00;;;;;;;-0.56;78.10;98894.14;215006;1324;22805;-78